Terminal Aerodrome Forecast
Issued by NWS

Home | Current Version | Previous Version | Graphics & Text | Print | Product List | Glossary On
Versions: 1 2 3 4 5 6 7 8 9 10 11 12 13 14 15 16 17 18 19 20
000
FTUS43 KBIS 220300 AAB
TAFJMS
TAF AMD
KJMS 220349Z 2204/2224 13009KT 3SM BR OVC002
     FM220800 07006KT 1/4SM -SN FZFG OVC002
     FM221800 04012KT 1SM -SN BR OVC005=

USA.gov is the U.S. government's official web portal to all federal, state and local government web resources and services.